Latest Weather Observations for Parawa West

IDS60901

Issued at 11:41 pm CDT Friday 27 February 2015 (issued every 10 minutes, with the page automatically refreshed every 10 minutes)

About weather observations | Map of Adelaide area stations | Latest observations for Adelaide area | Other Formats
Station Details ID: 023875 Name: SECOND VALLEY FOREST AWS Lat: -35.57 Lon: 138.29 Height: 341.0 m
Data from the previous 72 hours. | See also: Recent months at Parawa West
Date/Time
CDT
Tmp

°C
App
Tmp
°C
Dew
Point
°C
Rel
Hum
%
Delta-T

°C
Wind Press
QNH
hPa
Press
MSL
hPa
Rain
since
9 am
mm
Dir
 
Spd
km/h
Gust
km/h
Spd
kts
Gust
kts
27/11:30pm 19.6 16.7 12.8 65 3.9 ENE 20 28 11 15 1009.0 1007.9 0.0
27/11:00pm 19.0 16.5 13.6 71 3.1 E 19 26 10 14 1009.5 1008.4 0.0
27/10:30pm 19.0 17.5 14.1 73 2.9 SE 15 19 8 10 1009.8 1008.7 0.0
27/10:00pm 20.7 18.9 12.1 58 4.9 ESE 13 17 7 9 1010.0 1008.9 0.0
27/09:30pm 20.3 18.2 12.3 60 4.6 ESE 15 20 8 11 1009.7 1008.6 0.0
27/09:00pm 20.1 19.1 13.3 65 3.9 SSE 11 15 6 8 1009.7 1008.6 0.0
27/08:30pm 20.5 18.5 12.7 61 4.5 E 15 20 8 11 1009.0 1007.9 0.0
27/08:00pm 20.6 19.0 12.8 61 4.5 ESE 13 17 7 9 1009.0 1007.9 0.0
27/07:30pm 21.0 19.1 12.9 60 4.7 SE 15 17 8 9 1009.2 1008.1 0.0
27/07:00pm 22.6 20.8 12.0 51 6.1 SSE 13 19 7 10 1009.1 1008.0 0.0
27/06:30pm 23.3 22.1 11.7 48 6.6 ESE 9 13 5 7 1008.5 1007.4 0.0
27/06:00pm 24.0 22.7 12.6 49 6.7 SSE 11 13 6 7 1008.7 1007.6 0.0
27/05:30pm 25.3 24.3 12.2 44 7.6 SSE 9 13 5 7 1008.4 1007.3 0.0
27/05:00pm 26.4 25.3 12.1 41 8.4 SSE 9 13 5 7 1008.2 1007.1 0.0
27/04:30pm 26.0 24.6 12.1 42 8.1 SSE 11 13 6 7 1008.4 1007.3 0.0
27/04:00pm 28.7 27.7 10.4 32 10.5 NW 6 9 3 5 1008.6 1007.5 0.0
27/03:30pm 29.2 28.0 10.3 31 10.9 NNW 7 13 4 7 1008.7 1007.6 0.0
27/03:00pm 29.3 27.4 10.4 31 10.9 WNW 11 19 6 10 1009.0 1007.9 0.0
27/02:30pm 28.2 25.9 10.4 33 10.2 NW 13 20 7 11 1009.3 1008.2 0.0
27/02:00pm 28.1 25.8 10.3 33 10.2 NW 13 20 7 11 1009.4 1008.3 0.0
27/01:30pm 28.2 25.9 10.4 33 10.2 NW 13 20 7 11 1009.3 1008.2 0.0
27/01:00pm 28.5 25.9 10.7 33 10.3 NW 15 22 8 12 1009.7 1008.6 0.0
27/12:30pm 26.9 24.5 10.2 35 9.5 NW 13 22 7 12 1010.1 1009.0 0.0
27/12:00pm 28.1 27.0 10.8 34 10.0 NW 7 13 4 7 1010.5 1009.4 0.0
27/11:30am 24.9 23.8 10.8 41 8.0 NW 7 15 4 8 1010.9 1009.9 0.0
27/11:00am 25.0 23.5 10.5 40 8.2 NNW 9 19 5 10 1011.1 1010.0 0.0
27/10:30am 24.7 23.8 10.6 41 8.0 NNW 6 11 3 6 1010.9 1009.9 0.0
27/10:00am 24.7 23.7 10.2 40 8.1 NNE 6 11 3 6 1010.9 1009.9 0.0
27/09:30am 24.0 22.8 10.3 42 7.7 NW 7 13 4 7 1011.3 1010.2 0.0
27/09:00am 22.5 22.1 9.6 44 7.1 NNE 2 7 1 4 1011.2 1010.1 0.0
27/08:30am 21.2 19.9 9.1 46 6.5 NE 6 9 3 5 1011.2 1010.1 0.0
27/08:00am 20.2 18.6 8.8 48 6.1 NE 7 11 4 6 1011.1 1010.0 0.0
27/07:30am 18.5 16.5 8.5 52 5.3 NNE 9 13 5 7 1010.7 1009.7 0.0
27/07:00am 17.2 15.5 8.4 56 4.6 NNE 7 11 4 6 1010.4 1009.3 0.0
27/06:30am 17.2 14.4 8.4 56 4.6 NNE 13 19 7 10 1010.1 1009.0 0.0
27/06:00am 16.9 14.8 8.3 57 4.5 NE 9 13 5 7 1010.2 1009.1 0.0
27/05:30am 16.3 14.4 9.0 62 3.8 ENE 9 11 5 6 1009.9 1008.8 0.0
27/05:00am 17.3 15.1 9.5 60 4.2 ENE 11 17 6 9 1009.7 1008.6 0.0
27/04:30am 16.8 14.1 9.0 60 4.1 ENE 13 17 7 9 1009.8 1008.7 0.0
27/04:00am 17.0 13.6 7.6 54 4.8 E 15 19 8 10 1010.3 1009.2 0.0
27/03:30am 17.0 13.4 8.2 56 4.6 E 17 20 9 11 1010.5 1009.4 0.0
27/03:00am 16.6 14.9 9.8 64 3.6 E 9 13 5 7 1010.6 1009.5 0.0
27/02:30am 15.9 15.5 13.0 83 1.6 E 7 11 4 6 1011.1 1010.0 0.0
27/02:00am 15.8 15.0 12.9 83 1.6 ESE 9 15 5 8 1011.4 1010.3 0.0
27/01:30am 16.8 14.0 10.0 64 3.6 SE 15 20 8 11 1011.9 1010.8 0.0
27/01:00am 18.1 14.6 7.2 49 5.6 SE 15 19 8 10 1012.2 1011.1 0.0
27/12:30am 18.4 14.6 5.6 43 6.4 SE 15 19 8 10 1012.3 1011.2 0.0
27/12:00am 17.8 15.0 7.0 49 5.5 SE 11 13 6 7 1012.6 1011.5 0.0
 
Date/Time
CDT
Tmp

°C
App
Tmp
°C
Dew
Point
°C
Rel
Hum
%
Delta-T

°C
Wind Press
QNH
hPa
Press
MSL
hPa
Rain
since
9 am
mm
Dir
 
Spd
km/h
Gust
km/h
Spd
kts
Gust
kts
26/11:30pm 17.6 15.2 7.1 50 5.3 SE 9 13 5 7 1012.7 1011.6 0.0
26/11:00pm 17.2 14.5 7.3 52 5.0 SE 11 15 6 8 1012.8 1011.7 0.0
26/10:30pm 17.2 15.2 8.6 57 4.5 SE 9 11 5 6 1013.0 1011.9 0.0
26/10:00pm 17.6 16.1 10.7 64 3.8 SE 9 11 5 6 1012.9 1011.8 0.0
26/09:30pm 16.8 16.2 12.3 75 2.5 SSE 7 9 4 5 1012.8 1011.7 0.0
26/09:00pm 17.1 16.5 12.4 74 2.6 SSE 7 9 4 5 1012.6 1011.5 0.0
26/08:30pm 18.0 17.1 12.5 70 3.1 SSE 9 13 5 7 1012.5 1011.4 0.0
26/08:00pm 18.9 18.5 12.9 68 3.4 SSE 7 9 4 5 1012.2 1011.1 0.0
26/07:30pm 20.2 19.8 12.9 63 4.2 SSE 7 9 4 5 1012.1 1011.0 0.0
26/07:00pm 22.1 21.6 12.6 55 5.5 SSE 7 9 4 5 1012.0 1010.9 0.0
26/06:30pm 23.8 23.4 12.4 48 6.6 SSE 6 7 3 4 1011.7 1010.6 0.0
26/06:00pm 24.0 22.6 12.3 48 6.8 S 11 13 6 7 1011.5 1010.4 0.0
26/05:30pm 26.1 24.4 12.5 42 8.0 SSE 13 19 7 10 1011.6 1010.5 0.0
26/05:00pm 25.3 24.1 12.9 46 7.3 SSE 11 13 6 7 1011.7 1010.6 0.0
26/04:30pm 25.6 24.9 12.1 43 7.9 S 7 13 4 7 1011.7 1010.6 0.0
26/04:00pm 25.0 23.4 11.6 43 7.7 SSE 11 17 6 9 1011.8 1010.7 0.0
26/03:30pm 23.9 22.4 10.6 43 7.5 SSE 9 15 5 8 1012.2 1011.1 0.0
26/03:00pm 23.6 21.5 11.3 46 7.0 SSE 13 19 7 10 1012.4 1011.3 0.0
26/02:30pm 24.9 23.3 11.5 43 7.7 SSE 11 17 6 9 1012.5 1011.4 0.0
26/02:00pm 23.9 22.2 11.3 45 7.2 SSE 11 17 6 9 1012.7 1011.6 0.0
26/01:30pm 24.1 22.8 11.4 45 7.3 SSE 9 17 5 9 1012.8 1011.7 0.0
26/01:00pm 24.3 22.9 10.9 43 7.6 SW 9 17 5 9 1013.2 1012.1 0.0
26/12:30pm 25.3 23.9 9.6 37 8.7 S 7 13 4 7 1013.4 1012.4 0.0
26/12:00pm 26.0 24.8 9.4 35 9.2 SSE 6 11 3 6 1013.5 1012.5 0.0
26/11:30am 24.0 22.8 8.0 36 8.6 ENE 4 7 2 4 1013.7 1012.7 0.0
26/11:00am 22.5 20.7 5.4 33 8.7 E 4 7 2 4 1014.2 1013.1 0.0
26/10:30am 21.1 19.5 8.0 43 6.9 S 6 11 3 6 1014.4 1013.3 0.0
26/10:00am 19.6 17.9 7.7 46 6.2 S 6 11 3 6 1014.2 1013.1 0.0
26/09:30am 19.0 16.2 6.8 45 6.2 SSW 11 15 6 8 1014.3 1013.2 0.0
26/09:00am 17.9 15.7 9.3 57 4.6 SSE 11 15 6 8 1014.0 1013.0 0.0
26/08:30am 16.6 15.1 9.3 62 3.9 SSE 7 11 4 6 1013.5 1012.5 0.0
26/08:00am 15.8 14.2 7.8 59 4.1 SSE 6 7 3 4 1013.1 1012.0 0.0
26/07:30am 14.8 11.6 5.1 52 4.6 SSE 11 13 6 7 1012.9 1011.8 0.0
26/07:00am 15.3 12.5 2.1 41 6.0 SSE 6 6 3 3 1012.3 1011.2 0.0
26/06:30am 15.6 12.8 2.1 40 6.1 SE 6 6 3 3 1012.1 1011.0 0.0
26/06:00am 15.1 12.5 4.2 48 5.1 SE 7 9 4 5 1011.9 1010.8 0.0
26/05:30am 13.6 12.1 6.7 63 3.4 S 4 6 2 3 1011.8 1010.7 0.0
26/05:00am 14.1 12.0 6.7 61 3.6 S 7 11 4 6 1011.7 1010.6 0.0
26/04:30am 14.2 11.8 7.0 62 3.6 SE 9 13 5 7 1011.5 1010.4 0.0
26/04:00am 15.0 13.0 7.1 59 4.0 SE 7 11 4 6 1011.5 1010.4 0.0
26/03:30am 14.5 12.1 8.5 67 3.1 ESE 11 15 6 8 1011.6 1010.5 0.0
26/03:00am 13.8 10.8 6.2 60 3.7 SSE 11 15 6 8 1012.4 1011.3 0.0
26/02:30am 13.7 10.0 4.3 53 4.4 SSE 13 17 7 9 1012.2 1011.1 0.0
26/02:00am 14.1 10.9 3.0 47 5.1 SSE 9 13 5 7 1012.9 1011.8 0.0
26/01:30am 14.9 11.5 1.8 41 5.9 ESE 9 13 5 7 1012.4 1011.3 0.0
26/01:00am 14.3 10.8 1.2 41 5.8 S 9 11 5 6 1013.1 1012.0 0.0
26/12:30am 15.4 11.6 -0.4 34 6.8 SE 9 13 5 7 1013.1 1012.0 0.0
26/12:00am 14.7 11.0 2.6 44 5.5 SSE 11 13 6 7 1013.5 1012.5 0.0
 
Date/Time
CDT
Tmp

°C
App
Tmp
°C
Dew
Point
°C
Rel
Hum
%
Delta-T

°C
Wind Press
QNH
hPa
Press
MSL
hPa
Rain
since
9 am
mm
Dir
 
Spd
km/h
Gust
km/h
Spd
kts
Gust
kts
25/11:30pm 14.6 12.0 5.9 56 4.2 SSE 9 11 5 6 1014.2 1013.1 0.0
25/11:00pm 14.5 12.1 6.8 60 3.8 SSE 9 11 5 6 1014.0 1013.0 0.0
25/10:30pm 14.3 12.0 7.6 64 3.4 SSE 9 11 5 6 1014.2 1013.1 0.0
25/10:00pm 13.6 12.0 8.9 73 2.4 SSE 7 9 4 5 1014.8 1013.7 0.0
25/09:30pm 14.0 12.1 9.0 72 2.6 SSE 9 9 5 5 1014.8 1013.7 0.0
25/09:00pm 14.9 12.6 7.5 61 3.7 SSE 9 9 5 5 1014.4 1013.3 0.0
25/08:30pm 14.7 12.9 8.0 64 3.4 SE 7 9 4 5 1014.3 1013.2 0.0
25/08:00pm 14.6 13.2 9.4 71 2.7 SE 7 9 4 5 1014.2 1013.1 0.0
25/07:30pm 15.6 13.4 9.5 67 3.2 SE 11 13 6 7 1013.9 1012.9 0.0
25/07:00pm 16.6 13.6 9.3 62 3.9 SSE 15 17 8 9 1013.9 1012.9 0.0
25/06:30pm 17.5 15.1 10.1 62 4.0 S 13 17 7 9 1013.9 1012.9 0.0
25/06:00pm 18.9 17.0 10.5 58 4.6 SSE 11 13 6 7 1013.5 1012.5 0.0
25/05:30pm 19.3 17.0 10.6 57 4.8 SSE 13 19 7 10 1013.7 1012.7 0.0
25/05:00pm 20.7 18.9 9.6 49 6.0 SSE 9 13 5 7 1013.5 1012.5 0.0
25/04:30pm 20.3 18.1 9.2 49 6.0 SE 11 17 6 9 1013.6 1012.6 0.0
25/04:00pm 19.1 16.6 9.6 54 5.1 SSE 13 19 7 10 1014.2 1013.1 0.0
25/03:30pm 19.8 16.7 10.2 54 5.2 S 17 24 9 13 1015.1 1014.0 0.0
25/03:00pm 21.4 18.1 9.6 47 6.4 SSE 17 24 9 13 1015.0 1013.9 0.0
25/02:30pm 22.0 18.7 9.5 45 6.8 SE 17 22 9 12 1014.8 1013.7 0.0
25/02:00pm 21.3 17.9 9.2 46 6.6 SSE 17 22 9 12 1015.3 1014.2 0.0
25/01:30pm 20.6 17.6 9.2 48 6.1 SE 15 30 8 16 1016.0 1015.0 0.0
25/01:00pm 19.6 16.9 8.9 50 5.7 SE 13 24 7 13 1016.4 1015.4 0.0
25/12:30pm 19.8 17.3 8.2 47 6.1 SE 11 15 6 8 1017.1 1016.1 0.0
25/12:00pm 18.8 16.7 8.2 50 5.5 ESE 9 15 5 8 1017.8 1016.7 0.0
25/11:30am 17.9 14.8 8.7 55 4.8 E 15 22 8 12 1017.9 1016.8 0.0
25/11:00am 17.2 13.4 8.9 58 4.4 ESE 19 24 10 13 1017.7 1016.6 0.0
25/10:30am 16.8 13.2 9.7 63 3.8 E 19 30 10 16 1018.3 1017.2 0.0
25/10:00am 15.8 11.6 9.7 67 3.2 E 22 32 12 17 1018.0 1016.9 0.0
25/09:30am 14.7 10.9 9.7 72 2.6 E 20 30 11 16 1018.2 1017.1 0.0
25/09:00am 13.9 8.9 9.5 75 2.3 ESE 26 37 14 20 1017.9 1016.8 0.0
25/08:30am 13.1 8.1 9.4 78 1.9 ESE 26 35 14 19 1017.7 1016.6 0.0
25/08:00am 12.5 8.7 9.1 80 1.7 ESE 19 26 10 14 1018.1 1017.0 0.0
25/07:30am 11.6 8.5 9.0 84 1.3 ESE 15 22 8 12 1018.0 1016.9 0.0
25/07:00am 11.2 7.3 8.8 85 1.2 ESE 19 24 10 13 1017.6 1016.5 0.0
25/06:30am 11.4 7.5 8.8 84 1.3 ESE 19 24 10 13 1017.7 1016.6 0.0
25/06:00am 11.7 7.3 9.1 84 1.3 ESE 22 28 12 15 1017.6 1016.5 0.0
25/05:30am 11.9 7.6 9.3 84 1.3 SE 22 30 12 16 1017.6 1016.5 0.0
25/05:00am 12.0 6.9 9.2 83 1.4 SE 26 30 14 16 1017.5 1016.4 0.0
25/04:30am 12.1 7.8 9.3 83 1.4 SE 22 28 12 15 1017.7 1016.6 0.0
25/04:00am 12.4 7.7 9.4 82 1.5 SE 24 33 13 18 1017.9 1016.8 0.0
25/03:30am 12.6 8.3 9.4 81 1.6 SE 22 32 12 17 1018.2 1017.1 0.0
25/03:00am 12.5 8.2 9.3 81 1.6 SE 22 32 12 17 1018.5 1017.5 0.0
25/02:30am 12.6 7.1 9.2 80 1.7 SE 28 37 15 20 1018.5 1017.5 0.0
25/02:00am 13.0 8.7 9.4 79 1.9 SE 22 33 12 18 1019.3 1018.3 0.0
25/01:30am 13.0 9.1 9.3 78 1.9 SE 20 28 11 15 1019.8 1018.8 0.0
25/01:00am 13.3 8.3 9.7 79 1.9 SE 26 35 14 19 1019.7 1018.7 0.0
25/12:30am 13.3 7.3 10.1 81 1.7 SE 32 43 17 23 1019.2 1018.2 0.0
25/12:00am 13.4 7.0 10.6 83 1.5 SE 35 46 19 25 1019.1 1018.1 0.0

Latest Capital City Observations: Canberra | Sydney | Melbourne | Brisbane | Adelaide | Perth | Hobart | Darwin

Other Formats:

Comma delimited format used in spreadsheet applications
http://www.bom.gov.au/fwo/IDS60901/IDS60901.94811.axf

JavaScript Object Notation format (JSON) in row-major order
http://www.bom.gov.au/fwo/IDS60901/IDS60901.94811.json